createdAt,value
2018-04-16T00:00:17.471Z,7.07
2018-04-16T00:02:45.035Z,6.57
2018-04-16T00:05:12.692Z,6.37
2018-04-16T00:07:40.255Z,6.90
2018-04-16T00:10:07.822Z,6.90
2018-04-16T00:12:36.175Z,7.17
2018-04-16T00:15:03.727Z,6.83
2018-04-16T00:17:31.334Z,7.17
2018-04-16T00:19:58.935Z,7.00
2018-04-16T00:22:26.492Z,7.23
2018-04-16T00:24:54.143Z,7.73
2018-04-16T00:27:21.698Z,6.77
2018-04-16T00:29:49.292Z,7.13
2018-04-16T00:32:22.417Z,8.00
2018-04-16T00:34:55.723Z,7.13
2018-04-16T00:37:28.755Z,8.13
2018-04-16T00:40:01.908Z,7.50
2018-04-16T00:42:35.792Z,7.37
2018-04-16T00:48:17.997Z,6.97
2018-04-16T00:50:51.142Z,7.10
2018-04-16T00:53:24.330Z,6.70
2018-04-16T00:56:11.712Z,6.30
2018-04-16T00:58:55.872Z,7.00
2018-04-16T01:01:29.211Z,7.10
2018-04-16T01:04:02.302Z,7.70
2018-04-16T01:06:35.511Z,7.90
2018-04-16T01:09:08.547Z,7.63
2018-04-16T01:11:41.665Z,7.90
2018-04-16T01:14:14.875Z,8.23
2018-04-16T01:16:48.171Z,8.97
2018-04-16T01:19:21.266Z,9.20
2018-04-16T01:21:54.339Z,8.20
2018-04-16T01:24:27.419Z,7.77
2018-04-16T01:27:00.569Z,8.67
2018-04-16T01:29:33.640Z,8.30
2018-04-16T01:32:06.743Z,8.77
2018-04-16T01:34:39.857Z,7.87
2018-04-16T01:37:13.731Z,7.80
2018-04-16T01:39:46.793Z,8.33
2018-04-16T01:42:19.923Z,7.23
2018-04-16T01:44:53.263Z,7.47
2018-04-16T01:47:26.567Z,7.67
2018-04-16T01:49:59.760Z,8.33
2018-04-16T01:52:32.883Z,8.13
2018-04-16T01:55:06.045Z,7.90
2018-04-16T01:57:39.274Z,8.40
2018-04-16T02:00:12.528Z,8.50
2018-04-16T02:02:45.775Z,7.63
2018-04-16T02:05:18.895Z,8.43
2018-04-16T02:07:52.035Z,7.87
2018-04-16T02:10:25.135Z,7.70
2018-04-16T02:12:58.658Z,8.07
2018-04-16T02:15:31.747Z,7.53
2018-04-16T02:18:05.175Z,8.07
2018-04-16T02:20:38.411Z,8.70
2018-04-16T02:23:11.539Z,8.70
2018-04-16T02:25:45.580Z,8.27
2018-04-16T02:28:18.857Z,7.50
2018-04-16T02:30:52.915Z,7.47
2018-04-16T02:33:26.004Z,8.30
2018-04-16T02:35:59.402Z,7.87
2018-04-16T02:38:32.619Z,7.47
2018-04-16T02:41:05.714Z,7.80
2018-04-16T02:43:38.848Z,7.80
2018-04-16T02:46:12.130Z,8.03
2018-04-16T02:48:46.005Z,7.50
2018-04-16T02:51:19.071Z,8.23
2018-04-16T02:53:52.143Z,8.17
2018-04-16T02:56:25.491Z,8.10
2018-04-16T02:58:58.767Z,8.07
2018-04-16T03:01:31.871Z,8.10
2018-04-16T03:04:04.989Z,8.43
2018-04-16T03:06:38.116Z,9.07
2018-04-16T03:12:16.201Z,8.63
2018-04-16T03:14:49.628Z,9.63
2018-04-16T03:17:22.811Z,9.03
2018-04-16T03:19:56.037Z,8.87
2018-04-16T03:22:30.163Z,8.73
2018-04-16T03:25:04.167Z,8.20
2018-04-16T03:27:38.375Z,8.33
2018-04-16T03:30:12.384Z,8.40
2018-04-16T03:32:46.311Z,8.57
2018-04-16T03:35:19.625Z,7.90
2018-04-16T03:37:52.832Z,8.60
2018-04-16T03:40:26.253Z,9.90
2018-04-16T03:42:59.449Z,8.97
2018-04-16T03:45:32.839Z,8.40
2018-04-16T03:48:06.078Z,8.07
2018-04-16T03:50:53.371Z,8.67
2018-04-16T03:53:23.357Z,8.70
2018-04-16T03:55:54.822Z,9.17
2018-04-16T03:58:22.388Z,9.43
2018-04-16T04:00:49.964Z,9.63
2018-04-16T04:03:18.372Z,9.70
2018-04-16T04:05:45.937Z,8.70
2018-04-16T04:08:13.535Z,8.17
2018-04-16T04:10:41.138Z,8.77
2018-04-16T04:13:08.953Z,8.97
2018-04-16T04:15:36.560Z,9.40
2018-04-16T04:18:04.132Z,9.97
2018-04-16T04:20:31.701Z,11.30
2018-04-16T04:23:11.284Z,11.73
2018-04-16T04:25:51.565Z,10.67
2018-04-16T04:28:31.703Z,11.33
2018-04-16T04:30:59.415Z,9.60
2018-04-16T04:33:27.034Z,9.40
2018-04-16T04:35:55.638Z,9.17
2018-04-16T04:38:23.204Z,9.10
2018-04-16T04:40:50.887Z,9.17
2018-04-16T04:43:18.489Z,9.93
2018-04-16T04:45:46.235Z,9.60
2018-04-16T04:48:13.825Z,9.17
2018-04-16T04:50:42.219Z,8.50
2018-04-16T04:53:10.029Z,9.23
2018-04-16T04:55:37.588Z,8.83
2018-04-16T04:58:05.208Z,8.30
2018-04-16T05:00:32.830Z,8.63
2018-04-16T05:03:00.401Z,8.37
2018-04-16T05:05:28.809Z,7.93
2018-04-16T05:07:56.379Z,9.80
2018-04-16T05:10:23.963Z,10.10
2018-04-16T05:12:51.563Z,11.07
2018-04-16T05:15:19.134Z,10.77
2018-04-16T05:17:47.537Z,10.20
2018-04-16T05:20:15.103Z,10.67
2018-04-16T05:22:42.675Z,10.53
2018-04-16T05:25:10.241Z,9.70
2018-04-16T05:27:38.037Z,10.97
2018-04-16T05:30:06.409Z,11.20
2018-04-16T05:32:34.799Z,12.20
2018-04-16T05:35:03.310Z,11.60
2018-04-16T05:37:30.905Z,11.10
2018-04-16T05:39:58.697Z,11.93
2018-04-16T05:42:27.093Z,11.43
2018-04-16T05:44:54.729Z,11.70
2018-04-16T05:47:22.295Z,11.83
2018-04-16T05:49:50.682Z,12.50
2018-04-16T05:52:19.000Z,10.57
2018-04-16T05:54:46.594Z,10.60
2018-04-16T05:57:14.156Z,12.10
2018-04-16T05:59:41.960Z,12.77
2018-04-16T06:02:09.525Z,10.67
2018-04-16T06:04:37.974Z,9.60
2018-04-16T06:07:06.649Z,11.23
2018-04-16T06:09:34.267Z,13.60
2018-04-16T06:12:01.837Z,14.33
2018-04-16T06:14:29.428Z,13.63
2018-04-16T06:16:56.992Z,13.63
2018-04-16T06:19:25.371Z,14.00
2018-04-16T06:21:53.165Z,13.60
2018-04-16T06:24:20.729Z,14.07
2018-04-16T06:26:48.391Z,14.40
2018-04-16T06:29:15.951Z,13.87
2018-04-16T06:31:44.131Z,13.97
2018-04-16T06:34:12.779Z,14.97
2018-04-16T06:36:41.234Z,14.87
2018-04-16T06:39:08.800Z,14.67
2018-04-16T06:41:36.679Z,14.87
2018-04-16T06:44:05.023Z,14.67
2018-04-16T06:46:33.072Z,15.80
2018-04-16T06:49:00.691Z,17.00
2018-04-16T06:51:29.460Z,18.57
2018-04-16T06:56:31.169Z,16.87
2018-04-16T06:58:58.752Z,15.93
2018-04-16T07:01:27.112Z,15.90
2018-04-16T07:03:54.897Z,15.67
2018-04-16T07:06:22.501Z,17.27
2018-04-16T07:08:50.120Z,17.47
2018-04-16T07:11:17.960Z,17.67
2018-04-16T07:13:45.538Z,17.43
2018-04-16T07:16:13.146Z,17.37
2018-04-16T07:18:41.483Z,17.80
2018-04-16T07:21:09.254Z,17.37
2018-04-16T07:23:36.880Z,18.47
2018-04-16T07:26:04.523Z,16.37
2018-04-16T07:28:32.894Z,16.83
2018-04-16T07:31:01.242Z,17.00
2018-04-16T07:33:28.869Z,18.87
2018-04-16T07:35:56.441Z,17.00
2018-04-16T07:38:23.998Z,16.17
2018-04-16T07:40:51.629Z,16.97
2018-04-16T07:43:19.206Z,18.13
2018-04-16T07:45:46.861Z,16.53
2018-04-16T07:48:14.507Z,15.43
2018-04-16T07:50:42.859Z,15.87
2018-04-16T07:53:10.475Z,15.57
2018-04-16T07:55:38.164Z,15.90
2018-04-16T07:58:05.757Z,15.07
2018-04-16T08:00:34.090Z,14.67
2018-04-16T08:03:01.696Z,15.87
2018-04-16T08:05:30.058Z,15.03
2018-04-16T08:07:57.656Z,14.57
2018-04-16T08:10:25.527Z,16.00
2018-04-16T08:12:53.893Z,15.97
2018-04-16T08:15:21.632Z,15.47
2018-04-16T08:17:49.968Z,14.83
2018-04-16T08:20:17.534Z,15.07
2018-04-16T08:22:45.585Z,15.00
2018-04-16T08:25:13.215Z,14.63
2018-04-16T08:27:41.566Z,14.27
2018-04-16T08:30:09.604Z,15.07
2018-04-16T08:32:37.176Z,15.13
2018-04-16T08:35:04.892Z,14.47
2018-04-16T08:37:32.466Z,14.27
2018-04-16T08:40:00.079Z,14.77
2018-04-16T08:42:27.692Z,13.53
2018-04-16T08:44:56.025Z,13.23
2018-04-16T08:47:24.672Z,14.47
2018-04-16T08:49:52.434Z,14.57
2018-04-16T08:52:20.253Z,14.93
2018-04-16T08:54:49.000Z,12.70
2018-04-16T08:57:16.585Z,12.90
2018-04-16T08:59:45.001Z,13.00
2018-04-16T09:02:13.327Z,12.00
2018-04-16T09:04:40.899Z,11.10
2018-04-16T09:07:09.282Z,10.53
2018-04-16T09:09:37.640Z,9.63
2018-04-16T09:12:05.222Z,10.63
2018-04-16T09:14:33.602Z,10.23
2018-04-16T09:17:01.944Z,10.47
2018-04-16T09:19:29.864Z,10.87
2018-04-16T09:21:57.750Z,10.53
2018-04-16T09:24:25.518Z,8.97
2018-04-16T09:26:53.170Z,10.10
2018-04-16T09:29:20.760Z,10.07
2018-04-16T09:31:48.384Z,9.53
2018-04-16T09:34:15.963Z,9.20
2018-04-16T09:36:44.036Z,9.97
2018-04-16T09:39:11.648Z,10.97
2018-04-16T09:41:39.975Z,11.13
2018-04-16T09:44:07.536Z,10.33
2018-04-16T09:46:35.170Z,10.77
2018-04-16T09:49:03.238Z,12.40
2018-04-16T09:51:30.806Z,13.30
2018-04-16T09:53:58.389Z,11.17
2018-04-16T09:56:25.965Z,9.27
2018-04-16T09:58:53.549Z,8.83
2018-04-16T10:01:22.652Z,9.90
2018-04-16T10:03:50.974Z,9.03
2018-04-16T10:06:18.530Z,9.87
2018-04-16T10:08:46.109Z,9.73
2018-04-16T10:11:13.703Z,9.07
2018-04-16T10:13:42.227Z,9.90
2018-04-16T10:16:09.797Z,9.17
2018-04-16T10:18:37.360Z,9.60
2018-04-16T10:21:05.107Z,9.03
2018-04-16T10:23:32.845Z,9.07
2018-04-16T10:26:00.578Z,9.60
2018-04-16T10:28:28.927Z,9.30
2018-04-16T10:30:56.635Z,9.70
2018-04-16T10:33:24.969Z,8.43
2018-04-16T10:35:52.533Z,9.70
2018-04-16T10:38:20.805Z,7.73
2018-04-16T10:40:48.378Z,7.80
2018-04-16T10:43:15.952Z,7.60
2018-04-16T10:45:43.694Z,7.33
2018-04-16T10:48:11.426Z,7.10
2018-04-16T10:50:39.065Z,7.57
2018-04-16T10:53:06.734Z,7.43
2018-04-16T10:55:34.323Z,7.80
2018-04-16T10:58:02.529Z,7.30
2018-04-16T11:00:30.108Z,6.73
2018-04-16T11:02:58.771Z,7.03
2018-04-16T11:05:28.304Z,6.57
2018-04-16T11:07:56.681Z,7.13
2018-04-16T11:10:24.939Z,6.63
2018-04-16T11:12:53.361Z,7.17
2018-04-16T11:15:21.066Z,7.23
2018-04-16T11:17:49.584Z,7.73
2018-04-16T11:20:17.154Z,6.90
2018-04-16T11:22:44.769Z,7.00
2018-04-16T11:25:13.123Z,6.43
2018-04-16T11:27:40.722Z,7.60
2018-04-16T11:30:09.060Z,7.40
2018-04-16T11:32:37.316Z,7.33
2018-04-16T11:35:05.079Z,7.67
2018-04-16T11:37:32.747Z,7.90
2018-04-16T11:40:00.349Z,8.60
2018-04-16T11:42:29.713Z,8.50
2018-04-16T11:44:57.283Z,7.40
2018-04-16T11:47:24.852Z,8.30
2018-04-16T11:49:53.709Z,7.17
2018-04-16T11:52:21.346Z,7.30
2018-04-16T11:54:48.911Z,7.40
2018-04-16T11:57:16.508Z,7.43
2018-04-16T11:59:44.117Z,6.73
2018-04-16T12:02:12.538Z,7.00
2018-04-16T12:04:40.140Z,7.50
2018-04-16T12:07:07.677Z,7.23
2018-04-16T12:09:35.271Z,6.70
2018-04-16T12:12:05.430Z,7.27
2018-04-16T12:14:33.012Z,8.00
2018-04-16T12:17:00.612Z,7.70
2018-04-16T12:19:29.632Z,7.67
2018-04-16T12:21:57.203Z,8.20
2018-04-16T12:24:25.520Z,8.17
2018-04-16T12:26:53.921Z,9.10
2018-04-16T12:29:21.513Z,8.53
2018-04-16T12:31:49.275Z,8.37
2018-04-16T12:34:16.864Z,8.80
2018-04-16T12:36:44.428Z,8.17
2018-04-16T12:39:12.116Z,7.97
2018-04-16T12:41:39.635Z,8.40
2018-04-16T12:44:07.191Z,8.27
2018-04-16T12:46:34.810Z,8.47
2018-04-16T12:49:02.497Z,8.57
2018-04-16T12:51:30.441Z,7.90
2018-04-16T12:53:58.062Z,8.23
2018-04-16T12:56:25.685Z,8.40
2018-04-16T12:58:53.247Z,8.70
2018-04-16T13:01:20.883Z,8.40
2018-04-16T13:03:48.588Z,8.60
2018-04-16T13:06:16.126Z,8.93
2018-04-16T13:08:43.848Z,8.47
2018-04-16T13:11:13.046Z,7.63
2018-04-16T13:13:41.388Z,8.13
2018-04-16T13:16:08.980Z,7.57
2018-04-16T13:18:37.317Z,8.03
2018-04-16T13:21:04.931Z,8.77
2018-04-16T13:23:33.600Z,8.33
2018-04-16T13:26:01.927Z,7.93
2018-04-16T13:28:29.507Z,8.50
2018-04-16T13:30:57.084Z,8.60
2018-04-16T13:33:24.736Z,8.20
2018-04-16T13:35:53.076Z,9.23
2018-04-16T13:38:20.650Z,9.70
2018-04-16T13:40:48.291Z,9.53
2018-04-16T13:43:16.395Z,9.47
2018-04-16T13:45:44.046Z,9.03
2018-04-16T13:48:11.665Z,7.77
2018-04-16T13:50:39.259Z,8.97
2018-04-16T13:53:06.840Z,8.90
2018-04-16T13:55:34.471Z,8.73
2018-04-16T13:58:02.048Z,8.63
2018-04-16T14:00:29.642Z,8.57
2018-04-16T14:02:58.632Z,8.67
2018-04-16T14:05:27.045Z,8.80
2018-04-16T14:07:54.613Z,8.40
2018-04-16T14:10:22.240Z,8.47
2018-04-16T14:12:50.628Z,8.63
2018-04-16T14:15:18.942Z,8.47
2018-04-16T14:17:46.511Z,8.60
2018-04-16T14:20:14.126Z,8.57
2018-04-16T14:22:42.451Z,8.00
2018-04-16T14:25:10.011Z,8.60
2018-04-16T14:27:37.960Z,9.50
2018-04-16T14:30:05.568Z,9.17
2018-04-16T14:32:33.156Z,8.33
2018-04-16T14:35:00.718Z,7.90
2018-04-16T14:37:28.395Z,7.43
2018-04-16T14:39:55.956Z,7.20
2018-04-16T14:42:23.544Z,7.40
2018-04-16T14:44:51.119Z,7.10
2018-04-16T14:47:18.914Z,7.23
2018-04-16T14:49:47.268Z,7.87
2018-04-16T14:52:14.827Z,7.40
2018-04-16T14:54:42.385Z,7.27
2018-04-16T14:57:11.485Z,7.20
2018-04-16T14:59:39.811Z,7.47
2018-04-16T15:02:07.420Z,7.47
2018-04-16T15:04:35.785Z,7.50
2018-04-16T15:07:04.845Z,6.67
2018-04-16T15:09:32.439Z,7.30
2018-04-16T15:12:00.779Z,6.93
2018-04-16T15:14:28.342Z,8.27
2018-04-16T15:16:55.944Z,7.63
2018-04-16T15:19:23.519Z,8.00
2018-04-16T15:21:52.057Z,8.20
2018-04-16T15:24:19.724Z,7.87
2018-04-16T15:26:47.327Z,9.43
2018-04-16T15:29:14.922Z,10.40
2018-04-16T15:31:42.688Z,12.30
2018-04-16T15:34:10.324Z,11.70
2018-04-16T15:36:37.887Z,10.43
2018-04-16T15:39:13.669Z,10.13
2018-04-16T15:41:41.443Z,11.23
2018-04-16T15:44:09.089Z,10.93
2018-04-16T15:46:36.666Z,11.77
2018-04-16T15:49:04.233Z,12.07
2018-04-16T15:51:32.090Z,12.10
2018-04-16T15:53:59.960Z,11.73
2018-04-16T15:56:27.704Z,11.20
2018-04-16T15:58:55.599Z,10.37
2018-04-16T16:01:23.213Z,11.63
2018-04-16T16:03:51.536Z,12.47
2018-04-16T16:06:19.231Z,11.07
2018-04-16T16:08:47.471Z,12.33
2018-04-16T16:11:15.041Z,12.93
2018-04-16T16:13:42.641Z,11.50
2018-04-16T16:16:10.972Z,12.93
2018-04-16T16:18:38.725Z,11.70
2018-04-16T16:21:06.303Z,12.60
2018-04-16T16:23:33.940Z,10.57
2018-04-16T16:26:01.550Z,9.27
2018-04-16T16:28:30.020Z,8.70
2018-04-16T16:30:57.582Z,8.07
2018-04-16T16:33:25.166Z,8.60
2018-04-16T16:35:53.536Z,7.20
2018-04-16T16:38:21.971Z,8.07
2018-04-16T16:40:49.583Z,9.00
2018-04-16T16:43:17.235Z,7.83
2018-04-16T16:45:45.562Z,8.13
2018-04-16T16:48:13.128Z,8.30
2018-04-16T16:50:40.700Z,8.83
2018-04-16T16:53:08.255Z,8.30
2018-04-16T16:55:35.816Z,8.00
2018-04-16T16:58:03.576Z,7.30
2018-04-16T17:00:31.175Z,8.67
2018-04-16T17:02:59.563Z,8.30
2018-04-16T17:05:27.892Z,7.47
2018-04-16T17:07:55.506Z,8.57
2018-04-16T17:10:23.071Z,7.63
2018-04-16T17:12:50.642Z,8.17
2018-04-16T17:15:18.202Z,8.07
2018-04-16T17:17:45.827Z,8.87
2018-04-16T17:20:14.177Z,9.40
2018-04-16T17:22:41.818Z,9.20
2018-04-16T17:25:09.428Z,10.10
2018-04-16T17:27:37.790Z,9.93
2018-04-16T17:30:06.320Z,10.07
2018-04-16T17:32:33.875Z,10.40
2018-04-16T17:35:01.689Z,10.00
2018-04-16T17:37:30.026Z,9.77
2018-04-16T17:39:57.589Z,10.67
2018-04-16T17:42:25.165Z,10.27
2018-04-16T17:44:52.746Z,11.10
2018-04-16T17:47:20.359Z,11.17
2018-04-16T17:49:47.937Z,10.87
2018-04-16T17:52:15.516Z,10.53
2018-04-16T17:54:43.244Z,10.53
2018-04-16T17:57:10.816Z,10.80
2018-04-16T17:59:38.462Z,10.80
2018-04-16T18:02:06.094Z,10.97
2018-04-16T18:04:34.455Z,11.97
2018-04-16T18:07:03.695Z,11.70
2018-04-16T18:09:31.297Z,11.30
2018-04-16T18:11:58.945Z,10.63
2018-04-16T18:14:26.582Z,10.27
2018-04-16T18:16:54.176Z,10.30
2018-04-16T18:19:21.828Z,11.23
2018-04-16T18:21:49.458Z,12.10
2018-04-16T18:24:17.072Z,12.63
2018-04-16T18:26:45.431Z,12.57
2018-04-16T18:29:13.884Z,13.07
2018-04-16T18:31:41.539Z,12.40
2018-04-16T18:34:09.170Z,11.13
2018-04-16T18:36:37.557Z,10.97
2018-04-16T18:39:06.280Z,10.60
2018-04-16T18:41:33.890Z,10.63
2018-04-16T18:44:01.493Z,10.70
2018-04-16T18:46:29.248Z,11.00
2018-04-16T18:48:57.302Z,10.80
2018-04-16T18:51:24.880Z,10.20
2018-04-16T18:53:52.549Z,10.37
2018-04-16T18:56:20.196Z,10.70
2018-04-16T18:58:48.599Z,10.33
2018-04-16T19:01:16.658Z,10.83
2018-04-16T19:03:44.246Z,11.27
2018-04-16T19:06:12.050Z,11.67
2018-04-16T19:08:39.670Z,12.57
2018-04-16T19:11:07.309Z,11.60
2018-04-16T19:13:34.983Z,11.03
2018-04-16T19:16:02.687Z,11.67
2018-04-16T19:18:30.254Z,12.00
2018-04-16T19:21:03.406Z,13.83
2018-04-16T19:23:31.407Z,13.13
2018-04-16T19:25:59.034Z,13.03
2018-04-16T19:28:26.684Z,13.33
2018-04-16T19:30:54.281Z,14.43
2018-04-16T19:33:27.742Z,14.47
2018-04-16T19:35:55.410Z,15.47
2018-04-16T19:38:23.010Z,16.83
2018-04-16T19:40:50.666Z,16.43
2018-04-16T19:43:19.030Z,16.60
2018-04-16T19:45:47.540Z,15.80
2018-04-16T19:48:15.169Z,15.80
2018-04-16T19:50:42.759Z,15.50
2018-04-16T19:53:10.707Z,14.93
2018-04-16T19:55:44.640Z,12.83
2018-04-16T19:58:17.797Z,11.90
2018-04-16T20:00:46.169Z,12.23
2018-04-16T20:03:20.435Z,12.97
2018-04-16T20:05:48.517Z,12.50
2018-04-16T20:08:16.089Z,12.87
2018-04-16T20:10:44.671Z,13.43
2018-04-16T20:13:12.314Z,12.63
2018-04-16T20:15:39.974Z,14.57
2018-04-16T20:18:07.965Z,13.97
2018-04-16T20:20:35.559Z,13.67
2018-04-16T20:23:03.937Z,12.13
2018-04-16T20:25:32.522Z,12.37
2018-04-16T20:28:00.877Z,13.67
2018-04-16T20:30:28.480Z,13.20
2018-04-16T20:32:56.147Z,13.97
2018-04-16T20:35:23.724Z,13.50
2018-04-16T20:37:51.937Z,14.67
2018-04-16T20:40:19.567Z,13.77
2018-04-16T20:42:47.244Z,14.83
2018-04-16T20:45:18.933Z,14.13
2018-04-16T20:47:47.307Z,13.87
2018-04-16T20:50:15.832Z,13.97
2018-04-16T20:52:43.449Z,12.37
2018-04-16T20:55:11.975Z,10.97
2018-04-16T20:57:39.996Z,11.30
2018-04-16T21:00:08.374Z,12.60
2018-04-16T21:02:36.752Z,12.53
2018-04-16T21:05:05.281Z,12.63
2018-04-16T21:07:33.111Z,13.40
2018-04-16T21:10:01.475Z,13.90
2018-04-16T21:12:29.116Z,15.10
2018-04-16T21:14:56.688Z,13.90
2018-04-16T21:17:24.268Z,14.53
2018-04-16T21:19:52.787Z,15.53
2018-04-16T21:22:20.371Z,14.80
2018-04-16T21:24:47.965Z,14.47
2018-04-16T21:27:16.475Z,14.90
2018-04-16T21:29:44.182Z,15.50
2018-04-16T21:32:12.668Z,16.13
2018-04-16T21:34:40.237Z,15.30
2018-04-16T21:37:08.670Z,15.67
2018-04-16T21:39:36.299Z,15.47
2018-04-16T21:42:05.227Z,15.13
2018-04-16T21:44:32.864Z,15.97
2018-04-16T21:47:00.541Z,14.43
2018-04-16T21:49:29.060Z,14.77
2018-04-16T21:51:57.440Z,14.87
2018-04-16T21:54:26.536Z,13.37
2018-04-16T21:56:54.156Z,13.10
2018-04-16T21:59:21.722Z,13.70
2018-04-16T22:01:49.459Z,13.67
2018-04-16T22:04:17.138Z,13.00
2018-04-16T22:06:44.997Z,13.20
2018-04-16T22:09:12.690Z,13.63
2018-04-16T22:11:40.302Z,15.00
2018-04-16T22:14:08.714Z,17.10
2018-04-16T22:16:36.336Z,16.90
2018-04-16T22:19:04.704Z,17.33
2018-04-16T22:21:33.547Z,16.77
2018-04-16T22:24:01.195Z,15.90
2018-04-16T22:26:29.078Z,16.87
2018-04-16T22:28:57.232Z,15.97
2018-04-16T22:31:24.846Z,14.73
2018-04-16T22:33:54.025Z,14.83
2018-04-16T22:36:21.976Z,15.60
2018-04-16T22:38:49.623Z,15.93
2018-04-16T22:41:17.228Z,15.90
2018-04-16T22:43:45.585Z,16.63
2018-04-16T22:46:13.173Z,16.30
2018-04-16T22:48:41.566Z,16.60
2018-04-16T22:51:10.066Z,17.17
2018-04-16T22:53:38.363Z,16.13
2018-04-16T22:56:06.002Z,17.10
2018-04-16T22:58:33.603Z,18.23
2018-04-16T23:01:01.224Z,17.80
2018-04-16T23:03:28.844Z,16.87
2018-04-16T23:05:56.427Z,17.13
2018-04-16T23:08:24.014Z,16.27
2018-04-16T23:10:52.518Z,17.03
2018-04-16T23:13:20.127Z,16.67
2018-04-16T23:15:47.933Z,17.53
2018-04-16T23:18:15.516Z,17.53
2018-04-16T23:20:43.122Z,17.80
2018-04-16T23:23:10.771Z,18.37
2018-04-16T23:25:39.123Z,20.17
2018-04-16T23:28:06.701Z,19.80
2018-04-16T23:30:35.112Z,20.83
2018-04-16T23:33:03.632Z,20.10
2018-04-16T23:35:31.383Z,20.87
2018-04-16T23:37:59.158Z,19.53
2018-04-16T23:40:26.737Z,18.83
2018-04-16T23:42:55.101Z,19.33
2018-04-16T23:45:22.722Z,20.27
2018-04-16T23:47:50.296Z,18.70
2018-04-16T23:50:17.916Z,20.17
2018-04-16T23:52:45.515Z,20.37
2018-04-16T23:55:13.107Z,22.33
2018-04-16T23:57:40.714Z,19.80
